sensor_id;sensor_type;location;lat;lon;timestamp;temperature;humidity
12811;DHT22;6470;47.654;7.896;2022-12-17T00:00:10;-7.00;99.90
12811;DHT22;6470;47.654;7.896;2022-12-17T00:02:57;-4.60;99.90
12811;DHT22;6470;47.654;7.896;2022-12-17T00:08:31;-3.80;99.90
12811;DHT22;6470;47.654;7.896;2022-12-17T00:11:15;-4.10;99.90
12811;DHT22;6470;47.654;7.896;2022-12-17T00:14:00;-6.50;99.90
12811;DHT22;6470;47.654;7.896;2022-12-17T00:16:44;-4.40;99.90
12811;DHT22;6470;47.654;7.896;2022-12-17T00:19:28;-4.20;99.90
12811;DHT22;6470;47.654;7.896;2022-12-17T00:22:12;-4.30;99.90
12811;DHT22;6470;47.654;7.896;2022-12-17T00:24:56;-4.60;99.90
12811;DHT22;6470;47.654;7.896;2022-12-17T00:27:40;-4.40;99.90
12811;DHT22;6470;47.654;7.896;2022-12-17T00:30:24;-4.00;99.90
12811;DHT22;6470;47.654;7.896;2022-12-17T00:33:11;-4.90;99.90
12811;DHT22;6470;47.654;7.896;2022-12-17T00:38:39;-4.80;99.90
12811;DHT22;6470;47.654;7.896;2022-12-17T00:41:23;-5.00;99.90
12811;DHT22;6470;47.654;7.896;2022-12-17T00:44:08;-4.80;99.90
12811;DHT22;6470;47.654;7.896;2022-12-17T00:46:52;-4.70;99.90
12811;DHT22;6470;47.654;7.896;2022-12-17T00:49:36;-4.80;99.90
12811;DHT22;6470;47.654;7.896;2022-12-17T00:52:20;-4.50;99.90
12811;DHT22;6470;47.654;7.896;2022-12-17T00:55:04;-4.70;99.90
12811;DHT22;6470;47.654;7.896;2022-12-17T00:57:55;-5.10;99.90
12811;DHT22;6470;47.654;7.896;2022-12-17T01:00:40;-5.00;99.90
12811;DHT22;6470;47.654;7.896;2022-12-17T01:03:25;-5.20;99.90
12811;DHT22;6470;47.654;7.896;2022-12-17T01:06:09;-5.10;99.90
12811;DHT22;6470;47.654;7.896;2022-12-17T01:08:53;-5.20;99.90
12811;DHT22;6470;47.654;7.896;2022-12-17T01:11:54;-5.00;99.90
12811;DHT22;6470;47.654;7.896;2022-12-17T01:14:38;-5.10;99.90
12811;DHT22;6470;47.654;7.896;2022-12-17T01:17:23;-4.80;99.90
12811;DHT22;6470;47.654;7.896;2022-12-17T01:20:07;-4.50;99.90
12811;DHT22;6470;47.654;7.896;2022-12-17T01:25:36;-4.80;99.90
12811;DHT22;6470;47.654;7.896;2022-12-17T01:28:22;-4.60;99.90
12811;DHT22;6470;47.654;7.896;2022-12-17T01:31:07;-6.80;99.90
12811;DHT22;6470;47.654;7.896;2022-12-17T01:36:36;-4.80;99.90
12811;DHT22;6470;47.654;7.896;2022-12-17T01:39:20;-4.40;99.90
12811;DHT22;6470;47.654;7.896;2022-12-17T01:42:04;-4.40;99.90
12811;DHT22;6470;47.654;7.896;2022-12-17T01:47:43;-4.30;99.90
12811;DHT22;6470;47.654;7.896;2022-12-17T01:50:32;-7.30;99.90
12811;DHT22;6470;47.654;7.896;2022-12-17T01:53:20;-4.30;99.90
12811;DHT22;6470;47.654;7.896;2022-12-17T01:56:06;-4.50;99.90
12811;DHT22;6470;47.654;7.896;2022-12-17T01:58:51;-4.20;99.90
12811;DHT22;6470;47.654;7.896;2022-12-17T02:01:36;-4.80;99.90
12811;DHT22;6470;47.654;7.896;2022-12-17T02:04:20;-4.20;99.90
12811;DHT22;6470;47.654;7.896;2022-12-17T02:10:16;-4.70;99.90
12811;DHT22;6470;47.654;7.896;2022-12-17T02:13:18;-4.50;99.90
12811;DHT22;6470;47.654;7.896;2022-12-17T02:19:03;-4.50;99.90
12811;DHT22;6470;47.654;7.896;2022-12-17T02:21:54;-7.60;99.90
12811;DHT22;6470;47.654;7.896;2022-12-17T02:24:54;-4.90;99.90
12811;DHT22;6470;47.654;7.896;2022-12-17T02:27:38;-5.40;99.90
12811;DHT22;6470;47.654;7.896;2022-12-17T02:30:23;-4.70;99.90
12811;DHT22;6470;47.654;7.896;2022-12-17T02:33:08;-5.30;99.90
12811;DHT22;6470;47.654;7.896;2022-12-17T02:35:57;-4.50;99.90
12811;DHT22;6470;47.654;7.896;2022-12-17T02:38:43;-4.60;99.90
12811;DHT22;6470;47.654;7.896;2022-12-17T02:41:29;-4.50;99.90
12811;DHT22;6470;47.654;7.896;2022-12-17T02:44:16;-4.50;99.90
12811;DHT22;6470;47.654;7.896;2022-12-17T02:47:04;-5.00;99.90
12811;DHT22;6470;47.654;7.896;2022-12-17T02:49:49;-4.60;99.90
12811;DHT22;6470;47.654;7.896;2022-12-17T02:52:36;-5.10;99.90
12811;DHT22;6470;47.654;7.896;2022-12-17T02:55:22;-5.00;99.90
12811;DHT22;6470;47.654;7.896;2022-12-17T03:00:50;-7.80;99.90
12811;DHT22;6470;47.654;7.896;2022-12-17T03:03:34;-5.30;99.90
12811;DHT22;6470;47.654;7.896;2022-12-17T03:06:18;-4.80;99.90
12811;DHT22;6470;47.654;7.896;2022-12-17T03:11:47;-5.30;99.90
12811;DHT22;6470;47.654;7.896;2022-12-17T03:14:31;-4.50;99.90
12811;DHT22;6470;47.654;7.896;2022-12-17T03:17:15;-5.70;99.90
12811;DHT22;6470;47.654;7.896;2022-12-17T03:19:59;-5.20;99.90
12811;DHT22;6470;47.654;7.896;2022-12-17T03:22:43;-5.20;99.90
12811;DHT22;6470;47.654;7.896;2022-12-17T03:25:27;-5.30;99.90
12811;DHT22;6470;47.654;7.896;2022-12-17T03:28:12;-5.10;99.90
12811;DHT22;6470;47.654;7.896;2022-12-17T03:30:57;-5.70;99.90
12811;DHT22;6470;47.654;7.896;2022-12-17T03:33:41;-5.80;99.90
12811;DHT22;6470;47.654;7.896;2022-12-17T03:36:25;-5.80;99.90
12811;DHT22;6470;47.654;7.896;2022-12-17T03:44:38;-4.70;99.90
12811;DHT22;6470;47.654;7.896;2022-12-17T03:47:22;-5.00;99.90
12811;DHT22;6470;47.654;7.896;2022-12-17T03:50:06;-5.90;99.90
12811;DHT22;6470;47.654;7.896;2022-12-17T03:52:50;-5.30;99.90
12811;DHT22;6470;47.654;7.896;2022-12-17T03:55:34;-5.60;99.90
12811;DHT22;6470;47.654;7.896;2022-12-17T04:01:03;-4.60;99.90
12811;DHT22;6470;47.654;7.896;2022-12-17T04:03:47;-5.30;99.90
12811;DHT22;6470;47.654;7.896;2022-12-17T04:06:31;-5.20;99.90
12811;DHT22;6470;47.654;7.896;2022-12-17T04:14:45;-5.30;99.90
12811;DHT22;6470;47.654;7.896;2022-12-17T04:17:29;-5.80;99.90
12811;DHT22;6470;47.654;7.896;2022-12-17T04:20:13;-5.30;99.90
12811;DHT22;6470;47.654;7.896;2022-12-17T04:22:57;-5.40;99.90
12811;DHT22;6470;47.654;7.896;2022-12-17T04:25:41;-5.10;99.90
12811;DHT22;6470;47.654;7.896;2022-12-17T04:28:25;-5.30;99.90
12811;DHT22;6470;47.654;7.896;2022-12-17T04:31:09;-5.30;99.90
12811;DHT22;6470;47.654;7.896;2022-12-17T04:33:53;-4.60;99.90
12811;DHT22;6470;47.654;7.896;2022-12-17T04:36:38;-8.30;99.90
12811;DHT22;6470;47.654;7.896;2022-12-17T04:39:22;-5.30;99.90
12811;DHT22;6470;47.654;7.896;2022-12-17T04:42:07;-5.10;99.90
12811;DHT22;6470;47.654;7.896;2022-12-17T04:44:50;-5.30;99.90
12811;DHT22;6470;47.654;7.896;2022-12-17T04:47:35;-5.20;99.90
12811;DHT22;6470;47.654;7.896;2022-12-17T04:50:19;-5.30;99.90
12811;DHT22;6470;47.654;7.896;2022-12-17T04:53:04;-5.20;99.90
12811;DHT22;6470;47.654;7.896;2022-12-17T04:55:48;-5.10;99.90
12811;DHT22;6470;47.654;7.896;2022-12-17T04:58:33;-5.10;99.90
12811;DHT22;6470;47.654;7.896;2022-12-17T05:01:17;-5.70;99.90
12811;DHT22;6470;47.654;7.896;2022-12-17T05:04:02;-5.70;99.90
12811;DHT22;6470;47.654;7.896;2022-12-17T05:06:46;-4.80;99.90
12811;DHT22;6470;47.654;7.896;2022-12-17T05:09:29;-5.60;99.90
12811;DHT22;6470;47.654;7.896;2022-12-17T05:12:14;-5.20;99.90
12811;DHT22;6470;47.654;7.896;2022-12-17T05:14:58;-5.50;99.90
12811;DHT22;6470;47.654;7.896;2022-12-17T05:17:42;-5.40;99.90
12811;DHT22;6470;47.654;7.896;2022-12-17T05:20:26;-5.20;99.90
12811;DHT22;6470;47.654;7.896;2022-12-17T05:23:10;-5.30;99.90
12811;DHT22;6470;47.654;7.896;2022-12-17T05:26:07;-5.30;99.90
12811;DHT22;6470;47.654;7.896;2022-12-17T05:28:55;-5.30;99.90
12811;DHT22;6470;47.654;7.896;2022-12-17T05:31:39;-5.50;99.90
12811;DHT22;6470;47.654;7.896;2022-12-17T05:34:23;-5.40;99.90
12811;DHT22;6470;47.654;7.896;2022-12-17T05:37:07;-4.70;99.90
12811;DHT22;6470;47.654;7.896;2022-12-17T05:42:35;-5.10;99.90
12811;DHT22;6470;47.654;7.896;2022-12-17T05:45:20;-5.60;99.90
12811;DHT22;6470;47.654;7.896;2022-12-17T05:48:04;-5.80;99.90
12811;DHT22;6470;47.654;7.896;2022-12-17T05:50:49;-5.20;99.90
12811;DHT22;6470;47.654;7.896;2022-12-17T05:53:34;-5.20;99.90
12811;DHT22;6470;47.654;7.896;2022-12-17T05:56:18;-5.60;99.90
12811;DHT22;6470;47.654;7.896;2022-12-17T05:59:03;-5.00;99.90
12811;DHT22;6470;47.654;7.896;2022-12-17T06:01:47;-4.50;99.90
12811;DHT22;6470;47.654;7.896;2022-12-17T06:04:31;-6.00;99.90
12811;DHT22;6470;47.654;7.896;2022-12-17T06:07:16;-5.50;99.90
12811;DHT22;6470;47.654;7.896;2022-12-17T06:10:00;-5.70;99.90
12811;DHT22;6470;47.654;7.896;2022-12-17T06:12:53;-5.80;99.90
12811;DHT22;6470;47.654;7.896;2022-12-17T06:15:37;-5.90;99.90
12811;DHT22;6470;47.654;7.896;2022-12-17T06:18:22;-6.30;99.90
12811;DHT22;6470;47.654;7.896;2022-12-17T06:21:06;-5.50;99.90
12811;DHT22;6470;47.654;7.896;2022-12-17T06:23:50;-4.70;99.90
12811;DHT22;6470;47.654;7.896;2022-12-17T06:26:34;-4.40;99.90
12811;DHT22;6470;47.654;7.896;2022-12-17T06:29:18;-5.40;99.90
12811;DHT22;6470;47.654;7.896;2022-12-17T06:32:02;-5.60;99.90
12811;DHT22;6470;47.654;7.896;2022-12-17T06:34:46;-5.10;99.90
12811;DHT22;6470;47.654;7.896;2022-12-17T06:37:30;-5.40;99.90
12811;DHT22;6470;47.654;7.896;2022-12-17T06:40:14;-5.00;99.90
12811;DHT22;6470;47.654;7.896;2022-12-17T06:42:59;-5.10;99.90
12811;DHT22;6470;47.654;7.896;2022-12-17T06:45:43;-5.50;99.90
12811;DHT22;6470;47.654;7.896;2022-12-17T06:48:27;-5.30;99.90
12811;DHT22;6470;47.654;7.896;2022-12-17T06:51:11;-5.80;99.90
12811;DHT22;6470;47.654;7.896;2022-12-17T06:53:54;-5.10;99.90
12811;DHT22;6470;47.654;7.896;2022-12-17T06:56:39;-5.20;99.90
12811;DHT22;6470;47.654;7.896;2022-12-17T06:59:23;-5.40;99.90
12811;DHT22;6470;47.654;7.896;2022-12-17T07:02:09;-5.90;99.90
12811;DHT22;6470;47.654;7.896;2022-12-17T07:04:54;-5.30;99.90
12811;DHT22;6470;47.654;7.896;2022-12-17T07:07:38;-5.10;99.90
12811;DHT22;6470;47.654;7.896;2022-12-17T07:10:22;-5.20;99.90
12811;DHT22;6470;47.654;7.896;2022-12-17T07:13:14;-5.10;99.90
12811;DHT22;6470;47.654;7.896;2022-12-17T07:15:58;-5.50;99.90
12811;DHT22;6470;47.654;7.896;2022-12-17T07:18:43;-5.10;99.90
12811;DHT22;6470;47.654;7.896;2022-12-17T07:21:27;-5.00;99.90
12811;DHT22;6470;47.654;7.896;2022-12-17T07:24:11;-5.80;99.90
12811;DHT22;6470;47.654;7.896;2022-12-17T07:26:56;-5.10;99.90
12811;DHT22;6470;47.654;7.896;2022-12-17T07:29:40;-5.60;99.90
12811;DHT22;6470;47.654;7.896;2022-12-17T07:32:24;-5.60;99.90
12811;DHT22;6470;47.654;7.896;2022-12-17T07:35:22;-5.20;99.90
12811;DHT22;6470;47.654;7.896;2022-12-17T07:38:09;-5.00;99.90
12811;DHT22;6470;47.654;7.896;2022-12-17T07:43:38;-5.10;99.90
12811;DHT22;6470;47.654;7.896;2022-12-17T07:46:22;-5.40;99.90
12811;DHT22;6470;47.654;7.896;2022-12-17T07:49:06;-5.20;99.90
12811;DHT22;6470;47.654;7.896;2022-12-17T07:51:51;-5.20;99.90
12811;DHT22;6470;47.654;7.896;2022-12-17T07:54:35;-5.40;99.90
12811;DHT22;6470;47.654;7.896;2022-12-17T07:57:19;-5.50;99.90
12811;DHT22;6470;47.654;7.896;2022-12-17T08:00:03;-5.50;99.90
12811;DHT22;6470;47.654;7.896;2022-12-17T08:02:47;-8.50;99.90
12811;DHT22;6470;47.654;7.896;2022-12-17T08:05:31;-8.10;99.90
12811;DHT22;6470;47.654;7.896;2022-12-17T08:08:15;-8.00;99.90
12811;DHT22;6470;47.654;7.896;2022-12-17T08:10:59;-4.80;99.90
12811;DHT22;6470;47.654;7.896;2022-12-17T08:13:44;-5.50;99.90
12811;DHT22;6470;47.654;7.896;2022-12-17T08:16:28;-5.50;99.90
12811;DHT22;6470;47.654;7.896;2022-12-17T08:19:13;-8.30;99.90
12811;DHT22;6470;47.654;7.896;2022-12-17T08:21:57;-5.60;99.90
12811;DHT22;6470;47.654;7.896;2022-12-17T08:24:41;-5.20;99.90
12811;DHT22;6470;47.654;7.896;2022-12-17T08:27:25;-5.80;99.90
12811;DHT22;6470;47.654;7.896;2022-12-17T08:30:10;-5.30;99.90
12811;DHT22;6470;47.654;7.896;2022-12-17T08:32:54;-6.10;99.90
12811;DHT22;6470;47.654;7.896;2022-12-17T08:35:38;-5.60;99.90
12811;DHT22;6470;47.654;7.896;2022-12-17T08:38:23;-5.50;99.90
12811;DHT22;6470;47.654;7.896;2022-12-17T08:41:06;-6.00;99.90
12811;DHT22;6470;47.654;7.896;2022-12-17T08:43:51;-5.60;99.90
12811;DHT22;6470;47.654;7.896;2022-12-17T08:46:35;-4.90;99.90
12811;DHT22;6470;47.654;7.896;2022-12-17T08:49:19;-4.80;99.90
12811;DHT22;6470;47.654;7.896;2022-12-17T08:52:03;-5.40;99.90
12811;DHT22;6470;47.654;7.896;2022-12-17T08:54:47;-4.50;99.90
12811;DHT22;6470;47.654;7.896;2022-12-17T09:00:16;-4.30;99.90
12811;DHT22;6470;47.654;7.896;2022-12-17T09:03:01;-5.10;99.90
12811;DHT22;6470;47.654;7.896;2022-12-17T09:05:45;-5.40;99.90
12811;DHT22;6470;47.654;7.896;2022-12-17T09:08:29;-4.80;99.90
12811;DHT22;6470;47.654;7.896;2022-12-17T09:11:13;-5.10;99.90
12811;DHT22;6470;47.654;7.896;2022-12-17T09:16:43;-5.10;99.90
12811;DHT22;6470;47.654;7.896;2022-12-17T09:19:27;-4.90;99.90
12811;DHT22;6470;47.654;7.896;2022-12-17T09:22:11;-4.30;99.90
12811;DHT22;6470;47.654;7.896;2022-12-17T09:24:55;-4.90;99.90
12811;DHT22;6470;47.654;7.896;2022-12-17T09:30:24;-4.60;99.90
12811;DHT22;6470;47.654;7.896;2022-12-17T09:33:13;-5.00;99.90
12811;DHT22;6470;47.654;7.896;2022-12-17T09:35:58;-4.60;99.90
12811;DHT22;6470;47.654;7.896;2022-12-17T09:38:42;-4.40;99.90
12811;DHT22;6470;47.654;7.896;2022-12-17T09:41:28;-7.50;99.90
12811;DHT22;6470;47.654;7.896;2022-12-17T09:50:23;-4.10;99.90
12811;DHT22;6470;47.654;7.896;2022-12-17T09:53:41;-4.60;99.90
12811;DHT22;6470;47.654;7.896;2022-12-17T09:56:26;-4.40;99.90
12811;DHT22;6470;47.654;7.896;2022-12-17T09:59:21;-4.00;99.90
12811;DHT22;6470;47.654;7.896;2022-12-17T10:02:19;-3.60;99.90
12811;DHT22;6470;47.654;7.896;2022-12-17T10:05:07;-4.10;99.90
12811;DHT22;6470;47.654;7.896;2022-12-17T10:07:53;-3.30;99.90
12811;DHT22;6470;47.654;7.896;2022-12-17T10:10:43;-4.10;99.90
12811;DHT22;6470;47.654;7.896;2022-12-17T10:13:27;-3.50;99.90
12811;DHT22;6470;47.654;7.896;2022-12-17T10:16:43;-3.70;99.90
12811;DHT22;6470;47.654;7.896;2022-12-17T10:19:33;-3.00;99.90
12811;DHT22;6470;47.654;7.896;2022-12-17T10:22:20;-3.10;99.90
12811;DHT22;6470;47.654;7.896;2022-12-17T10:25:24;-3.10;99.90
12811;DHT22;6470;47.654;7.896;2022-12-17T10:28:18;-3.80;99.90
12811;DHT22;6470;47.654;7.896;2022-12-17T10:31:10;-6.60;99.90
12811;DHT22;6470;47.654;7.896;2022-12-17T10:33:59;-3.50;99.90
12811;DHT22;6470;47.654;7.896;2022-12-17T10:36:49;-3.20;99.90
12811;DHT22;6470;47.654;7.896;2022-12-17T10:39:34;-3.20;99.90
12811;DHT22;6470;47.654;7.896;2022-12-17T10:42:29;-3.20;99.90
12811;DHT22;6470;47.654;7.896;2022-12-17T10:45:32;-3.50;99.90
12811;DHT22;6470;47.654;7.896;2022-12-17T10:51:01;-3.60;99.90
12811;DHT22;6470;47.654;7.896;2022-12-17T10:53:49;-3.20;99.90
12811;DHT22;6470;47.654;7.896;2022-12-17T10:56:34;-3.20;99.90
12811;DHT22;6470;47.654;7.896;2022-12-17T10:59:29;-3.40;99.90
12811;DHT22;6470;47.654;7.896;2022-12-17T11:02:25;-5.80;99.90
12811;DHT22;6470;47.654;7.896;2022-12-17T11:05:15;-3.30;99.90
12811;DHT22;6470;47.654;7.896;2022-12-17T11:08:02;-3.10;99.90
12811;DHT22;6470;47.654;7.896;2022-12-17T11:10:47;-3.00;99.90
12811;DHT22;6470;47.654;7.896;2022-12-17T11:13:35;-5.60;99.90
12811;DHT22;6470;47.654;7.896;2022-12-17T11:16:25;-2.80;99.90
12811;DHT22;6470;47.654;7.896;2022-12-17T11:21:56;-2.20;99.90
12811;DHT22;6470;47.654;7.896;2022-12-17T11:24:59;-2.10;99.90
12811;DHT22;6470;47.654;7.896;2022-12-17T11:27:50;-2.40;99.90
12811;DHT22;6470;47.654;7.896;2022-12-17T11:30:45;-2.30;99.90
12811;DHT22;6470;47.654;7.896;2022-12-17T11:33:42;-2.40;99.90
12811;DHT22;6470;47.654;7.896;2022-12-17T11:37:06;-2.80;99.90
12811;DHT22;6470;47.654;7.896;2022-12-17T11:49:20;-1.90;99.90
12811;DHT22;6470;47.654;7.896;2022-12-17T11:57:54;-1.60;99.90
12811;DHT22;6470;47.654;7.896;2022-12-17T12:01:06;-2.20;99.90
12811;DHT22;6470;47.654;7.896;2022-12-17T12:10:37;-2.20;99.90
12811;DHT22;6470;47.654;7.896;2022-12-17T12:16:23;-1.90;99.90
12811;DHT22;6470;47.654;7.896;2022-12-17T12:22:30;-1.60;99.90
12811;DHT22;6470;47.654;7.896;2022-12-17T12:25:33;-1.40;99.90
12811;DHT22;6470;47.654;7.896;2022-12-17T12:34:21;-2.00;99.90
12811;DHT22;6470;47.654;7.896;2022-12-17T12:37:12;-1.50;99.90
12811;DHT22;6470;47.654;7.896;2022-12-17T12:43:19;-2.00;99.90
12811;DHT22;6470;47.654;7.896;2022-12-17T12:49:24;-1.90;99.90
12811;DHT22;6470;47.654;7.896;2022-12-17T12:52:21;-1.90;99.90
12811;DHT22;6470;47.654;7.896;2022-12-17T12:55:07;-2.00;99.90
12811;DHT22;6470;47.654;7.896;2022-12-17T12:58:00;-1.70;99.90
12811;DHT22;6470;47.654;7.896;2022-12-17T13:09:18;-1.70;99.90
12811;DHT22;6470;47.654;7.896;2022-12-17T13:19:45;2.00;99.90
12811;DHT22;6470;47.654;7.896;2022-12-17T13:24:45;2.40;99.90
12811;DHT22;6470;47.654;7.896;2022-12-17T13:35:39;-2.20;99.90
12811;DHT22;6470;47.654;7.896;2022-12-17T13:40:51;2.30;99.90
12811;DHT22;6470;47.654;7.896;2022-12-17T13:43:21;2.40;99.90
12811;DHT22;6470;47.654;7.896;2022-12-17T13:45:50;2.20;99.90
12811;DHT22;6470;47.654;7.896;2022-12-17T13:48:23;2.20;99.90
12811;DHT22;6470;47.654;7.896;2022-12-17T13:51:19;2.00;99.90
12811;DHT22;6470;47.654;7.896;2022-12-17T13:53:57;2.00;99.90
12811;DHT22;6470;47.654;7.896;2022-12-17T13:56:28;1.90;99.90
12811;DHT22;6470;47.654;7.896;2022-12-17T13:58:56;1.80;99.90
12811;DHT22;6470;47.654;7.896;2022-12-17T14:01:22;-0.50;99.90
12811;DHT22;6470;47.654;7.896;2022-12-17T14:03:59;1.80;99.90
12811;DHT22;6470;47.654;7.896;2022-12-17T14:06:32;1.60;99.90
12811;DHT22;6470;47.654;7.896;2022-12-17T14:08:58;1.60;99.90
12811;DHT22;6470;47.654;7.896;2022-12-17T14:11:25;2.00;99.90
12811;DHT22;6470;47.654;7.896;2022-12-17T14:14:20;-1.20;99.90
12811;DHT22;6470;47.654;7.896;2022-12-17T14:16:49;1.90;99.90
12811;DHT22;6470;47.654;7.896;2022-12-17T14:19:14;-1.40;99.90
12811;DHT22;6470;47.654;7.896;2022-12-17T14:21:40;-1.50;99.90
12811;DHT22;6470;47.654;7.896;2022-12-17T14:24:08;-1.40;99.90
12811;DHT22;6470;47.654;7.896;2022-12-17T14:26:46;-1.00;99.90
12811;DHT22;6470;47.654;7.896;2022-12-17T14:29:12;-1.60;99.90
12811;DHT22;6470;47.654;7.896;2022-12-17T14:31:38;-1.40;99.90
12811;DHT22;6470;47.654;7.896;2022-12-17T14:34:06;-2.30;99.90
12811;DHT22;6470;47.654;7.896;2022-12-17T14:36:40;-1.50;99.90
12811;DHT22;6470;47.654;7.896;2022-12-17T14:39:22;-2.50;99.90
12811;DHT22;6470;47.654;7.896;2022-12-17T14:41:48;-2.00;99.90
12811;DHT22;6470;47.654;7.896;2022-12-17T14:44:33;-2.50;99.90
12811;DHT22;6470;47.654;7.896;2022-12-17T14:49:57;-2.20;99.90
12811;DHT22;6470;47.654;7.896;2022-12-17T14:52:37;-2.40;99.90
12811;DHT22;6470;47.654;7.896;2022-12-17T14:57:52;-2.40;99.90
12811;DHT22;6470;47.654;7.896;2022-12-17T15:00:19;-2.50;99.90
12811;DHT22;6470;47.654;7.896;2022-12-17T15:02:54;-3.40;99.90
12811;DHT22;6470;47.654;7.896;2022-12-17T15:05:20;-2.40;99.90
12811;DHT22;6470;47.654;7.896;2022-12-17T15:07:45;-3.50;99.90
12811;DHT22;6470;47.654;7.896;2022-12-17T15:10:15;-3.20;99.90
12811;DHT22;6470;47.654;7.896;2022-12-17T15:12:42;1.50;99.90
12811;DHT22;6470;47.654;7.896;2022-12-17T15:15:15;-2.80;99.90
12811;DHT22;6470;47.654;7.896;2022-12-17T15:17:41;-5.70;99.90
12811;DHT22;6470;47.654;7.896;2022-12-17T15:20:17;-2.90;99.90
12811;DHT22;6470;47.654;7.896;2022-12-17T15:22:44;-3.00;99.90
12811;DHT22;6470;47.654;7.896;2022-12-17T15:25:12;-3.60;99.90
12811;DHT22;6470;47.654;7.896;2022-12-17T15:27:38;-3.40;99.90
12811;DHT22;6470;47.654;7.896;2022-12-17T15:30:04;-3.20;99.90
12811;DHT22;6470;47.654;7.896;2022-12-17T15:37:25;-4.00;99.90
12811;DHT22;6470;47.654;7.896;2022-12-17T15:39:51;-3.50;99.90
12811;DHT22;6470;47.654;7.896;2022-12-17T15:42:17;-4.30;99.90
12811;DHT22;6470;47.654;7.896;2022-12-17T15:47:27;-4.20;99.90
12811;DHT22;6470;47.654;7.896;2022-12-17T15:49:53;-4.20;99.90
12811;DHT22;6470;47.654;7.896;2022-12-17T15:54:45;-4.20;99.90
12811;DHT22;6470;47.654;7.896;2022-12-17T15:59:37;-6.90;99.90
12811;DHT22;6470;47.654;7.896;2022-12-17T16:04:29;-4.20;99.90
12811;DHT22;6470;47.654;7.896;2022-12-17T16:06:54;-4.30;99.90
12811;DHT22;6470;47.654;7.896;2022-12-17T16:09:20;-4.60;99.90
12811;DHT22;6470;47.654;7.896;2022-12-17T16:11:54;-4.10;99.90
12811;DHT22;6470;47.654;7.896;2022-12-17T16:14:24;-4.40;99.90
12811;DHT22;6470;47.654;7.896;2022-12-17T16:16:50;-4.50;99.90
12811;DHT22;6470;47.654;7.896;2022-12-17T16:19:16;-7.10;99.90
12811;DHT22;6470;47.654;7.896;2022-12-17T16:21:42;-4.60;99.90
12811;DHT22;6470;47.654;7.896;2022-12-17T16:24:08;-7.30;99.90
12811;DHT22;6470;47.654;7.896;2022-12-17T16:26:35;-5.30;99.90
12811;DHT22;6470;47.654;7.896;2022-12-17T16:29:02;-4.90;99.90
12811;DHT22;6470;47.654;7.896;2022-12-17T16:31:28;-4.70;99.90
12811;DHT22;6470;47.654;7.896;2022-12-17T16:33:54;-4.80;99.90
12811;DHT22;6470;47.654;7.896;2022-12-17T16:38:48;-5.30;99.90
12811;DHT22;6470;47.654;7.896;2022-12-17T16:41:15;-4.90;99.90
12811;DHT22;6470;47.654;7.896;2022-12-17T16:43:41;-4.70;99.90
12811;DHT22;6470;47.654;7.896;2022-12-17T16:46:28;-4.80;99.90
12811;DHT22;6470;47.654;7.896;2022-12-17T16:48:55;-4.70;99.90
12811;DHT22;6470;47.654;7.896;2022-12-17T16:51:24;-4.80;99.90
12811;DHT22;6470;47.654;7.896;2022-12-17T16:53:49;-4.70;99.90
12811;DHT22;6470;47.654;7.896;2022-12-17T16:56:18;-4.70;99.90
12811;DHT22;6470;47.654;7.896;2022-12-17T16:58:43;-7.00;99.90
12811;DHT22;6470;47.654;7.896;2022-12-17T17:01:10;-4.80;99.90
12811;DHT22;6470;47.654;7.896;2022-12-17T17:03:40;-4.30;99.90
12811;DHT22;6470;47.654;7.896;2022-12-17T17:06:06;-4.90;99.90
12811;DHT22;6470;47.654;7.896;2022-12-17T17:08:37;-4.50;99.90
12811;DHT22;6470;47.654;7.896;2022-12-17T17:11:20;-5.30;99.90
12811;DHT22;6470;47.654;7.896;2022-12-17T17:13:51;-5.00;99.90
12811;DHT22;6470;47.654;7.896;2022-12-17T17:16:19;-4.90;99.90
12811;DHT22;6470;47.654;7.896;2022-12-17T17:18:45;-5.20;99.90
12811;DHT22;6470;47.654;7.896;2022-12-17T17:24:00;-5.40;99.90
12811;DHT22;6470;47.654;7.896;2022-12-17T17:26:27;-5.00;99.90
12811;DHT22;6470;47.654;7.896;2022-12-17T17:28:54;-5.20;99.90
12811;DHT22;6470;47.654;7.896;2022-12-17T17:31:20;-7.50;99.90
12811;DHT22;6470;47.654;7.896;2022-12-17T17:33:47;-5.20;99.90
12811;DHT22;6470;47.654;7.896;2022-12-17T17:36:17;-7.90;99.90
12811;DHT22;6470;47.654;7.896;2022-12-17T17:38:44;-5.30;99.90
12811;DHT22;6470;47.654;7.896;2022-12-17T17:41:11;-5.20;99.90
12811;DHT22;6470;47.654;7.896;2022-12-17T17:43:38;-5.30;99.90
12811;DHT22;6470;47.654;7.896;2022-12-17T17:46:12;-5.30;99.90
12811;DHT22;6470;47.654;7.896;2022-12-17T17:48:38;-4.90;99.90
12811;DHT22;6470;47.654;7.896;2022-12-17T17:51:19;-5.10;99.90
12811;DHT22;6470;47.654;7.896;2022-12-17T17:53:50;-5.60;99.90
12811;DHT22;6470;47.654;7.896;2022-12-17T17:56:21;-5.10;99.90
12811;DHT22;6470;47.654;7.896;2022-12-17T17:59:15;-5.00;99.90
12811;DHT22;6470;47.654;7.896;2022-12-17T18:01:45;-4.70;99.90
12811;DHT22;6470;47.654;7.896;2022-12-17T18:04:14;-5.00;99.90
12811;DHT22;6470;47.654;7.896;2022-12-17T18:06:41;-5.20;99.90
12811;DHT22;6470;47.654;7.896;2022-12-17T18:09:08;-5.50;99.90
12811;DHT22;6470;47.654;7.896;2022-12-17T18:11:35;-5.40;99.90
12811;DHT22;6470;47.654;7.896;2022-12-17T18:14:03;-5.20;99.90
12811;DHT22;6470;47.654;7.896;2022-12-17T18:16:38;-5.00;99.90
12811;DHT22;6470;47.654;7.896;2022-12-17T18:19:14;-5.60;99.90
12811;DHT22;6470;47.654;7.896;2022-12-17T18:21:40;-4.90;99.90
12811;DHT22;6470;47.654;7.896;2022-12-17T18:24:09;-5.60;99.90
12811;DHT22;6470;47.654;7.896;2022-12-17T18:26:37;-5.30;99.90
12811;DHT22;6470;47.654;7.896;2022-12-17T18:29:13;-5.20;99.90
12811;DHT22;6470;47.654;7.896;2022-12-17T18:31:39;-5.20;99.90
12811;DHT22;6470;47.654;7.896;2022-12-17T18:34:05;-5.50;99.90
12811;DHT22;6470;47.654;7.896;2022-12-17T18:36:37;-5.20;99.90
12811;DHT22;6470;47.654;7.896;2022-12-17T18:41:37;-5.10;99.90
12811;DHT22;6470;47.654;7.896;2022-12-17T18:44:22;-5.40;99.90
12811;DHT22;6470;47.654;7.896;2022-12-17T18:46:48;-4.70;99.90
12811;DHT22;6470;47.654;7.896;2022-12-17T18:49:15;-5.40;99.90
12811;DHT22;6470;47.654;7.896;2022-12-17T18:51:43;-5.00;99.90
12811;DHT22;6470;47.654;7.896;2022-12-17T18:54:15;-5.00;99.90
12811;DHT22;6470;47.654;7.896;2022-12-17T18:56:41;-5.10;99.90
12811;DHT22;6470;47.654;7.896;2022-12-17T18:59:07;-5.40;99.90
12811;DHT22;6470;47.654;7.896;2022-12-17T19:01:34;-4.80;99.90
12811;DHT22;6470;47.654;7.896;2022-12-17T19:04:06;-8.40;99.90
12811;DHT22;6470;47.654;7.896;2022-12-17T19:06:34;-5.90;99.90
12811;DHT22;6470;47.654;7.896;2022-12-17T19:09:00;-7.80;99.90
12811;DHT22;6470;47.654;7.896;2022-12-17T19:11:27;-5.90;99.90
12811;DHT22;6470;47.654;7.896;2022-12-17T19:13:53;-5.10;99.90
12811;DHT22;6470;47.654;7.896;2022-12-17T19:16:21;-5.50;99.90
12811;DHT22;6470;47.654;7.896;2022-12-17T19:18:51;-5.10;99.90
12811;DHT22;6470;47.654;7.896;2022-12-17T19:21:18;-5.30;99.90
12811;DHT22;6470;47.654;7.896;2022-12-17T19:23:44;-5.30;99.90
12811;DHT22;6470;47.654;7.896;2022-12-17T19:26:18;-5.30;99.90
12811;DHT22;6470;47.654;7.896;2022-12-17T19:28:46;-5.40;99.90
12811;DHT22;6470;47.654;7.896;2022-12-17T19:31:13;-5.20;99.90
12811;DHT22;6470;47.654;7.896;2022-12-17T19:33:39;-5.20;99.90
12811;DHT22;6470;47.654;7.896;2022-12-17T19:36:11;-5.30;99.90
12811;DHT22;6470;47.654;7.896;2022-12-17T19:38:37;-5.30;99.90
12811;DHT22;6470;47.654;7.896;2022-12-17T19:41:14;-5.30;99.90
12811;DHT22;6470;47.654;7.896;2022-12-17T19:43:41;-5.90;99.90
12811;DHT22;6470;47.654;7.896;2022-12-17T19:46:10;-5.70;99.90
12811;DHT22;6470;47.654;7.896;2022-12-17T19:48:38;-5.50;99.90
12811;DHT22;6470;47.654;7.896;2022-12-17T19:51:05;-5.50;99.90
12811;DHT22;6470;47.654;7.896;2022-12-17T19:53:32;-5.10;99.90